createdAt,value
2019-03-12T00:00:24.632Z,0.00
2019-03-12T00:01:24.617Z,0.00
2019-03-12T00:02:24.613Z,0.00
2019-03-12T00:03:24.621Z,0.00
2019-03-12T00:04:24.592Z,0.00
2019-03-12T00:05:24.574Z,0.00
2019-03-12T00:06:24.569Z,0.00
2019-03-12T00:07:24.552Z,0.00
2019-03-12T00:08:24.554Z,0.00
2019-03-12T00:09:24.532Z,0.00
2019-03-12T00:10:24.522Z,0.00
2019-03-12T00:11:24.512Z,0.00
2019-03-12T00:12:24.504Z,0.00
2019-03-12T00:13:24.524Z,0.00
2019-03-12T00:14:24.481Z,0.00
2019-03-12T00:15:24.465Z,0.00
2019-03-12T00:16:24.459Z,0.00
2019-03-12T00:17:24.459Z,0.00
2019-03-12T00:18:24.454Z,0.00
2019-03-12T00:19:24.432Z,0.00
2019-03-12T00:20:24.417Z,0.00
2019-03-12T00:21:24.408Z,0.00
2019-03-12T00:22:24.398Z,0.00
2019-03-12T00:23:24.411Z,0.00
2019-03-12T00:24:24.374Z,0.00
2019-03-12T00:25:24.370Z,0.00
2019-03-12T00:26:24.354Z,0.00
2019-03-12T00:27:24.339Z,0.00
2019-03-12T00:28:24.337Z,0.00
2019-03-12T00:29:24.336Z,0.00
2019-03-12T00:30:24.319Z,0.00
2019-03-12T00:31:24.300Z,0.00
2019-03-12T00:32:24.295Z,0.00
2019-03-12T00:33:24.290Z,0.00
2019-03-12T00:34:24.305Z,0.00
2019-03-12T00:35:24.260Z,0.00
2019-03-12T00:36:24.252Z,0.00
2019-03-12T00:37:24.237Z,0.00
2019-03-12T00:38:24.228Z,0.00
2019-03-12T00:39:24.223Z,0.00
2019-03-12T00:40:24.224Z,0.00
2019-03-12T00:41:24.203Z,0.00
2019-03-12T00:42:24.195Z,0.00
2019-03-12T00:43:24.176Z,0.00
2019-03-12T00:44:24.165Z,0.00
2019-03-12T00:45:24.169Z,0.00
2019-03-12T00:46:26.957Z,0.00
2019-03-12T00:47:24.135Z,0.00
2019-03-12T00:48:24.125Z,0.00
2019-03-12T00:49:24.118Z,0.00
2019-03-12T00:50:24.118Z,0.00
2019-03-12T00:51:24.091Z,0.00
2019-03-12T00:52:24.086Z,0.00
2019-03-12T00:53:24.071Z,0.00
2019-03-12T00:54:24.057Z,0.00
2019-03-12T00:55:24.080Z,0.00
2019-03-12T00:56:24.040Z,0.00
2019-03-12T00:57:24.029Z,0.00
2019-03-12T00:58:24.019Z,0.00
2019-03-12T00:59:24.012Z,0.00
2019-03-12T01:00:24.000Z,0.00
2019-03-12T01:01:24.007Z,0.00
2019-03-12T01:02:23.978Z,0.00
2019-03-12T01:03:23.965Z,0.00
2019-03-12T01:04:23.954Z,0.00
2019-03-12T01:05:23.947Z,0.00
2019-03-12T01:06:23.968Z,0.00
2019-03-12T01:07:23.919Z,0.00
2019-03-12T01:08:23.912Z,0.00
2019-03-12T01:09:23.902Z,0.00
2019-03-12T01:10:23.890Z,0.00
2019-03-12T01:11:23.892Z,0.00
2019-03-12T01:12:23.889Z,0.00
2019-03-12T01:13:23.860Z,0.00
2019-03-12T01:14:23.858Z,0.00
2019-03-12T01:15:23.841Z,0.00
2019-03-12T01:16:23.832Z,0.00
2019-03-12T01:17:23.833Z,0.00
2019-03-12T01:18:23.812Z,0.00
2019-03-12T01:19:23.801Z,0.00
2019-03-12T01:20:23.787Z,0.00
2019-03-12T01:21:23.777Z,0.00
2019-03-12T01:22:23.804Z,0.00
2019-03-12T01:23:23.756Z,0.00
2019-03-12T01:24:23.755Z,0.00
2019-03-12T01:25:23.734Z,0.00
2019-03-12T01:26:23.720Z,0.00
2019-03-12T01:27:23.738Z,0.00
2019-03-12T01:28:23.700Z,0.00
2019-03-12T01:29:23.690Z,0.00
2019-03-12T01:30:23.675Z,0.00
2019-03-12T01:31:23.675Z,0.00
2019-03-12T01:32:23.659Z,0.00
2019-03-12T01:33:23.680Z,0.00
2019-03-12T01:34:23.732Z,0.00
2019-03-12T01:35:23.626Z,0.00
2019-03-12T01:36:23.697Z,0.00
2019-03-12T01:37:23.606Z,0.00
2019-03-12T01:38:23.641Z,0.00
2019-03-12T01:39:23.588Z,0.00
2019-03-12T01:40:23.577Z,0.00
2019-03-12T01:41:23.564Z,0.00
2019-03-12T01:42:23.553Z,0.00
2019-03-12T01:43:23.560Z,0.00
2019-03-12T01:44:23.539Z,0.00
2019-03-12T01:45:23.527Z,0.00
2019-03-12T01:46:23.508Z,0.00
2019-03-12T01:47:23.500Z,0.00
2019-03-12T01:48:23.522Z,0.00
2019-03-12T01:49:23.485Z,0.00
2019-03-12T01:50:23.467Z,0.00
2019-03-12T01:51:23.464Z,0.00
2019-03-12T01:52:23.452Z,0.00
2019-03-12T01:53:23.444Z,0.00
2019-03-12T01:54:23.446Z,0.00
2019-03-12T01:55:23.446Z,0.00
2019-03-12T01:56:23.450Z,0.00
2019-03-12T01:57:23.391Z,0.00
2019-03-12T01:58:23.389Z,0.00
2019-03-12T01:59:23.385Z,0.00
2019-03-12T02:00:23.368Z,0.00
2019-03-12T02:01:23.354Z,0.00
2019-03-12T02:02:23.343Z,0.00
2019-03-12T02:03:23.333Z,0.00
2019-03-12T02:04:23.344Z,0.00
2019-03-12T02:05:23.309Z,0.00
2019-03-12T02:06:23.297Z,0.00
2019-03-12T02:07:23.294Z,0.00
2019-03-12T02:08:23.279Z,0.00
2019-03-12T02:09:23.292Z,0.00
2019-03-12T02:10:23.258Z,0.00
2019-03-12T02:11:23.248Z,0.00
2019-03-12T02:12:23.236Z,0.00
2019-03-12T02:13:23.232Z,0.00
2019-03-12T02:14:23.242Z,0.00
2019-03-12T02:15:23.217Z,0.00
2019-03-12T02:16:23.195Z,0.00
2019-03-12T02:17:23.187Z,0.00
2019-03-12T02:18:23.172Z,0.00
2019-03-12T02:19:23.164Z,0.00
2019-03-12T02:20:23.167Z,0.00
2019-03-12T02:21:23.147Z,0.00
2019-03-12T02:22:23.131Z,0.00
2019-03-12T02:23:23.122Z,0.00
2019-03-12T02:24:23.111Z,0.00
2019-03-12T02:25:23.121Z,0.00
2019-03-12T02:26:23.094Z,0.00
2019-03-12T02:27:23.093Z,0.00
2019-03-12T02:28:23.068Z,0.00
2019-03-12T02:29:23.052Z,0.00
2019-03-12T02:30:23.090Z,0.00
2019-03-12T02:31:23.038Z,0.00
2019-03-12T02:32:23.030Z,0.00
2019-03-12T02:33:23.016Z,0.00
2019-03-12T02:34:23.012Z,0.00
2019-03-12T02:35:23.008Z,0.00
2019-03-12T02:36:22.987Z,0.00
2019-03-12T02:37:22.986Z,0.00
2019-03-12T02:38:22.969Z,0.00
2019-03-12T02:39:22.954Z,0.00
2019-03-12T02:40:22.974Z,0.00
2019-03-12T02:41:22.932Z,0.00
2019-03-12T02:42:22.925Z,0.00
2019-03-12T02:43:22.913Z,0.00
2019-03-12T02:44:22.908Z,0.00
2019-03-12T02:45:22.890Z,0.00
2019-03-12T02:46:22.902Z,0.00
2019-03-12T02:47:22.878Z,0.00
2019-03-12T02:48:22.866Z,0.00
2019-03-12T02:49:22.853Z,0.00
2019-03-12T02:50:22.844Z,0.00
2019-03-12T02:51:22.852Z,0.00
2019-03-12T02:52:22.822Z,0.00
2019-03-12T02:53:22.822Z,0.00
2019-03-12T02:54:22.804Z,0.00
2019-03-12T02:55:22.791Z,0.00
2019-03-12T02:56:22.802Z,0.00
2019-03-12T02:57:22.769Z,0.00
2019-03-12T02:58:22.764Z,0.00
2019-03-12T02:59:22.748Z,0.00
2019-03-12T03:00:22.742Z,0.00
2019-03-12T03:01:22.727Z,0.00
2019-03-12T03:02:22.740Z,0.00
2019-03-12T03:03:22.715Z,0.00
2019-03-12T03:04:22.697Z,0.00
2019-03-12T03:05:22.682Z,0.00
2019-03-12T03:06:22.702Z,0.00
2019-03-12T03:07:22.681Z,0.00
2019-03-12T03:08:22.655Z,0.00
2019-03-12T03:09:22.640Z,0.00
2019-03-12T03:10:23.320Z,0.00
2019-03-12T03:11:22.624Z,0.00
2019-03-12T03:12:22.644Z,0.00
2019-03-12T03:13:22.602Z,0.00
2019-03-12T03:14:22.585Z,0.00
2019-03-12T03:15:22.578Z,0.00
2019-03-12T03:16:24.222Z,0.00
2019-03-12T03:17:22.587Z,0.00
2019-03-12T03:18:22.546Z,0.00
2019-03-12T03:19:22.535Z,0.00
2019-03-12T03:20:22.529Z,0.00
2019-03-12T03:21:22.519Z,0.00
2019-03-12T03:22:22.505Z,0.00
2019-03-12T03:23:22.506Z,0.00
2019-03-12T03:24:22.491Z,0.00
2019-03-12T03:25:22.471Z,0.00
2019-03-12T03:26:22.481Z,0.00
2019-03-12T03:27:22.454Z,0.00
2019-03-12T03:28:22.494Z,0.00
2019-03-12T03:29:22.429Z,0.00
2019-03-12T03:30:22.421Z,0.00
2019-03-12T03:31:22.409Z,0.00
2019-03-12T03:32:22.399Z,0.00
2019-03-12T03:33:22.445Z,0.00
2019-03-12T03:34:27.836Z,0.00
2019-03-12T03:35:23.378Z,0.00
2019-03-12T03:36:22.364Z,0.00
2019-03-12T03:37:22.344Z,0.00
2019-03-12T03:38:22.335Z,0.00
2019-03-12T03:39:22.338Z,0.00
2019-03-12T03:40:22.310Z,0.00
2019-03-12T03:41:22.311Z,0.00
2019-03-12T03:42:22.344Z,0.00
2019-03-12T03:43:22.294Z,0.00
2019-03-12T03:44:22.288Z,0.00
2019-03-12T03:45:22.283Z,0.00
2019-03-12T03:46:22.250Z,0.00
2019-03-12T03:47:22.238Z,0.00
2019-03-12T03:48:22.240Z,0.00
2019-03-12T03:49:22.242Z,0.00
2019-03-12T03:50:22.218Z,0.00
2019-03-12T03:51:22.208Z,0.00
2019-03-12T03:52:22.237Z,0.00
2019-03-12T03:53:22.183Z,0.00
2019-03-12T03:54:22.174Z,0.00
2019-03-12T03:55:22.178Z,0.00
2019-03-12T03:56:22.155Z,0.00
2019-03-12T03:57:22.140Z,0.00
2019-03-12T03:58:22.134Z,0.00
2019-03-12T03:59:22.116Z,0.00
2019-03-12T04:00:22.127Z,0.00
2019-03-12T04:01:22.094Z,0.00
2019-03-12T04:02:22.095Z,0.00
2019-03-12T04:03:22.075Z,0.00
2019-03-12T04:04:22.074Z,0.00
2019-03-12T04:05:22.090Z,0.00
2019-03-12T04:06:22.043Z,0.00
2019-03-12T04:07:22.038Z,0.00
2019-03-12T04:08:22.020Z,0.00
2019-03-12T04:09:22.086Z,0.00
2019-03-12T04:10:22.002Z,0.00
2019-03-12T04:11:22.017Z,0.00
2019-03-12T04:12:21.982Z,0.00
2019-03-12T04:13:21.972Z,0.00
2019-03-12T04:14:21.967Z,0.00
2019-03-12T04:15:21.953Z,0.00
2019-03-12T04:16:21.962Z,0.00
2019-03-12T04:17:21.933Z,0.00
2019-03-12T04:18:21.928Z,0.00
2019-03-12T04:19:21.909Z,0.00
2019-03-12T04:20:21.920Z,0.00
2019-03-12T04:21:21.935Z,0.00
2019-03-12T04:22:21.883Z,0.00
2019-03-12T04:23:21.876Z,0.00
2019-03-12T04:24:21.870Z,0.00
2019-03-12T04:25:21.860Z,0.00
2019-03-12T04:26:21.840Z,0.00
2019-03-12T04:27:21.861Z,0.00
2019-03-12T04:28:21.826Z,0.00
2019-03-12T04:29:21.810Z,0.00
2019-03-12T04:30:21.805Z,0.00
2019-03-12T04:31:21.790Z,0.00
2019-03-12T04:32:21.797Z,0.00
2019-03-12T04:33:21.772Z,0.00
2019-03-12T04:34:21.772Z,0.00
2019-03-12T04:35:21.753Z,0.00
2019-03-12T04:36:21.876Z,0.00
2019-03-12T04:37:21.759Z,0.00
2019-03-12T04:38:21.719Z,0.00
2019-03-12T04:39:21.707Z,0.00
2019-03-12T04:40:21.701Z,0.00
2019-03-12T04:41:21.685Z,0.00
2019-03-12T04:42:21.685Z,0.00
2019-03-12T04:43:21.680Z,0.00
2019-03-12T04:44:21.656Z,0.00
2019-03-12T04:45:21.649Z,0.00
2019-03-12T04:46:21.635Z,0.00
2019-03-12T04:47:21.629Z,0.00
2019-03-12T04:48:21.631Z,0.00
2019-03-12T04:49:21.614Z,0.00
2019-03-12T04:50:21.616Z,0.00
2019-03-12T04:51:21.585Z,0.00
2019-03-12T04:52:21.573Z,0.00
2019-03-12T04:53:21.575Z,0.00
2019-03-12T04:54:21.557Z,0.00
2019-03-12T04:55:21.551Z,0.00
2019-03-12T04:56:21.537Z,0.00
2019-03-12T04:57:21.522Z,0.00
2019-03-12T04:58:21.525Z,0.00
2019-03-12T04:59:21.591Z,0.00
2019-03-12T05:00:21.493Z,0.00
2019-03-12T05:01:21.485Z,0.00
2019-03-12T05:02:21.473Z,0.00
2019-03-12T05:03:21.484Z,0.00
2019-03-12T05:04:21.457Z,0.00
2019-03-12T05:05:21.443Z,0.00
2019-03-12T05:06:21.431Z,0.00
2019-03-12T05:07:21.423Z,0.00
2019-03-12T05:08:21.427Z,0.00
2019-03-12T05:09:21.407Z,0.00
2019-03-12T05:10:21.397Z,0.00
2019-03-12T05:11:21.381Z,0.00
2019-03-12T05:12:21.373Z,0.00
2019-03-12T05:13:21.387Z,0.00
2019-03-12T05:14:21.359Z,0.00
2019-03-12T05:15:21.344Z,0.00
2019-03-12T05:16:21.333Z,0.00
2019-03-12T05:17:21.320Z,0.00
2019-03-12T05:18:21.343Z,0.00
2019-03-12T05:19:21.303Z,0.00
2019-03-12T05:20:21.295Z,0.00
2019-03-12T05:21:21.284Z,0.00
2019-03-12T05:22:21.277Z,0.00
2019-03-12T05:23:21.291Z,0.00
2019-03-12T05:24:21.249Z,0.00
2019-03-12T05:25:21.245Z,0.00
2019-03-12T05:26:21.231Z,0.00
2019-03-12T05:27:21.230Z,0.00
2019-03-12T05:28:21.207Z,0.00
2019-03-12T05:29:21.213Z,0.00
2019-03-12T05:30:21.193Z,0.00
2019-03-12T05:31:21.181Z,0.00
2019-03-12T05:32:21.168Z,0.00
2019-03-12T05:33:21.157Z,0.00
2019-03-12T05:34:23.194Z,0.00
2019-03-12T05:35:21.150Z,0.00
2019-03-12T05:36:21.128Z,0.00
2019-03-12T05:37:21.128Z,0.00
2019-03-12T05:38:21.109Z,0.00
2019-03-12T05:39:21.117Z,0.00
2019-03-12T05:40:21.101Z,0.00
2019-03-12T05:41:21.081Z,0.00
2019-03-12T05:42:21.069Z,0.00
2019-03-12T05:43:21.072Z,0.00
2019-03-12T05:44:21.075Z,0.00
2019-03-12T05:45:21.053Z,0.00
2019-03-12T05:46:21.026Z,0.00
2019-03-12T05:47:21.017Z,0.00
2019-03-12T05:48:21.004Z,0.00
2019-03-12T05:49:20.998Z,0.00
2019-03-12T05:50:20.998Z,0.00
2019-03-12T05:51:20.981Z,0.00
2019-03-12T05:52:20.967Z,0.00
2019-03-12T05:53:20.961Z,0.00
2019-03-12T05:54:20.955Z,0.00
2019-03-12T05:55:20.973Z,0.00
2019-03-12T05:56:20.928Z,0.00
2019-03-12T05:57:20.923Z,0.00
2019-03-12T05:58:20.905Z,5.62
2019-03-12T05:59:20.903Z,5.62
2019-03-12T06:00:20.904Z,5.62
2019-03-12T06:01:20.879Z,5.62
2019-03-12T06:02:20.878Z,5.62
2019-03-12T06:03:20.854Z,5.62
2019-03-12T06:04:20.848Z,5.62
2019-03-12T06:05:20.854Z,5.62
2019-03-12T06:06:20.829Z,5.62
2019-03-12T06:07:20.818Z,5.62
2019-03-12T06:08:20.808Z,5.62
2019-03-12T06:09:29.761Z,5.62
2019-03-12T06:10:21.802Z,5.62
2019-03-12T06:11:20.781Z,5.62
2019-03-12T06:12:20.770Z,5.62
2019-03-12T06:13:20.752Z,5.62
2019-03-12T06:14:20.742Z,5.62
2019-03-12T06:15:20.766Z,5.62
2019-03-12T06:16:20.721Z,5.62
2019-03-12T06:17:20.723Z,5.62
2019-03-12T06:18:20.762Z,5.62
2019-03-12T06:19:20.691Z,5.62
2019-03-12T06:20:20.684Z,5.62
2019-03-12T06:21:20.687Z,5.62
2019-03-12T06:22:20.666Z,5.62
2019-03-12T06:23:20.656Z,5.62
2019-03-12T06:24:20.640Z,5.62
2019-03-12T06:25:20.632Z,5.62
2019-03-12T06:26:20.641Z,11.25
2019-03-12T06:27:20.609Z,11.25
2019-03-12T06:28:20.601Z,11.25
2019-03-12T06:29:20.586Z,11.25
2019-03-12T06:30:20.580Z,16.88
2019-03-12T06:31:20.596Z,16.88
2019-03-12T06:32:20.569Z,16.88
2019-03-12T06:33:24.178Z,16.88
2019-03-12T06:34:20.534Z,11.25
2019-03-12T06:35:20.527Z,11.25
2019-03-12T06:36:20.514Z,11.25
2019-03-12T06:37:20.525Z,11.25
2019-03-12T06:38:20.502Z,11.25
2019-03-12T06:39:20.484Z,11.25
2019-03-12T06:40:20.470Z,11.25
2019-03-12T06:41:20.460Z,5.62
2019-03-12T06:42:20.472Z,5.62
2019-03-12T06:43:20.441Z,5.62
2019-03-12T06:44:20.429Z,5.62
2019-03-12T06:45:20.415Z,5.62
2019-03-12T06:46:20.404Z,5.62
2019-03-12T06:47:20.411Z,5.62
2019-03-12T06:48:20.386Z,5.62
2019-03-12T06:49:20.374Z,5.62
2019-03-12T06:50:20.365Z,5.62
2019-03-12T06:51:20.353Z,5.62
2019-03-12T06:52:20.364Z,5.62
2019-03-12T06:53:20.346Z,5.62
2019-03-12T06:54:20.320Z,11.25
2019-03-12T06:55:20.312Z,11.25
2019-03-12T06:56:20.303Z,11.25
2019-03-12T06:57:20.318Z,11.25
2019-03-12T06:58:20.283Z,11.25
2019-03-12T06:59:20.266Z,11.25
2019-03-12T07:00:20.262Z,11.25
2019-03-12T07:01:20.251Z,11.25
2019-03-12T07:02:20.239Z,11.25
2019-03-12T07:03:20.241Z,11.25
2019-03-12T07:04:20.215Z,11.25
2019-03-12T07:05:20.207Z,16.88
2019-03-12T07:06:20.197Z,16.88
2019-03-12T07:07:20.191Z,16.88
2019-03-12T07:08:20.204Z,16.88
2019-03-12T07:09:20.170Z,16.88
2019-03-12T07:10:20.154Z,16.88
2019-03-12T07:11:20.183Z,16.88
2019-03-12T07:12:20.147Z,16.88
2019-03-12T07:13:20.123Z,22.50
2019-03-12T07:14:22.579Z,22.50
2019-03-12T07:15:20.103Z,22.50
2019-03-12T07:16:20.091Z,28.12
2019-03-12T07:17:20.082Z,28.12
2019-03-12T07:18:20.069Z,22.50
2019-03-12T07:19:20.160Z,22.50
2019-03-12T07:20:20.050Z,28.12
2019-03-12T07:21:20.038Z,28.12
2019-03-12T07:22:20.029Z,28.12
2019-03-12T07:23:20.020Z,28.12
2019-03-12T07:24:20.038Z,33.75
2019-03-12T07:25:20.010Z,33.75
2019-03-12T07:26:19.991Z,28.12
2019-03-12T07:27:19.975Z,33.75
2019-03-12T07:28:19.970Z,28.12
2019-03-12T07:29:19.954Z,28.12
2019-03-12T07:30:19.963Z,28.12
2019-03-12T07:31:20.056Z,33.75
2019-03-12T07:32:19.929Z,33.75
2019-03-12T07:33:19.915Z,33.75
2019-03-12T07:34:19.901Z,28.12
2019-03-12T07:35:22.631Z,28.12
2019-03-12T07:36:19.901Z,28.12
2019-03-12T07:37:19.869Z,28.12
2019-03-12T07:38:19.861Z,33.75
2019-03-12T07:39:19.847Z,33.75
2019-03-12T07:40:20.363Z,28.12
2019-03-12T07:41:31.341Z,28.12
2019-03-12T07:42:20.822Z,28.12
2019-03-12T07:43:19.816Z,22.50
2019-03-12T07:44:19.803Z,16.88
2019-03-12T07:45:19.810Z,16.88
2019-03-12T07:46:19.777Z,16.88
2019-03-12T07:47:19.765Z,16.88
2019-03-12T07:48:19.753Z,22.50
2019-03-12T07:49:19.744Z,22.50
2019-03-12T07:50:19.735Z,16.88
2019-03-12T07:51:19.744Z,16.88
2019-03-12T07:52:19.723Z,11.25
2019-03-12T07:53:19.818Z,11.25
2019-03-12T07:54:19.690Z,11.25
2019-03-12T07:55:19.697Z,16.88
2019-03-12T07:56:19.682Z,22.50
2019-03-12T07:57:19.659Z,33.75
2019-03-12T07:58:19.653Z,28.12
2019-03-12T07:59:19.640Z,28.12
2019-03-12T08:00:19.629Z,33.75
2019-03-12T08:01:19.639Z,39.38
2019-03-12T08:02:19.617Z,33.75
2019-03-12T08:03:19.597Z,28.12
2019-03-12T08:04:19.587Z,28.12
2019-03-12T08:05:19.583Z,28.12
2019-03-12T08:06:19.606Z,28.12
2019-03-12T08:07:19.551Z,28.12
2019-03-12T08:08:19.541Z,33.75
2019-03-12T08:09:19.535Z,39.38
2019-03-12T08:10:19.521Z,39.38
2019-03-12T08:11:19.545Z,33.75
2019-03-12T08:12:19.503Z,33.75
2019-03-12T08:13:19.494Z,39.38
2019-03-12T08:14:19.480Z,33.75
2019-03-12T08:15:23.342Z,33.75
2019-03-12T08:16:19.471Z,33.75
2019-03-12T08:17:19.472Z,33.75
2019-03-12T08:18:19.439Z,33.75
2019-03-12T08:19:19.428Z,28.12
2019-03-12T08:20:19.417Z,33.75
2019-03-12T08:21:22.494Z,39.38
2019-03-12T08:22:19.405Z,33.75
2019-03-12T08:23:19.382Z,33.75
2019-03-12T08:24:19.374Z,33.75
2019-03-12T08:25:19.373Z,33.75
2019-03-12T08:26:19.359Z,33.75
2019-03-12T08:27:19.369Z,33.75
2019-03-12T08:28:19.335Z,33.75
2019-03-12T08:29:19.319Z,39.38
2019-03-12T08:30:19.323Z,33.75
2019-03-12T08:31:19.299Z,39.38
2019-03-12T08:32:19.315Z,39.38
2019-03-12T08:33:19.276Z,45.00
2019-03-12T08:34:19.269Z,45.00
2019-03-12T08:35:19.261Z,45.00
2019-03-12T08:36:19.243Z,45.00
2019-03-12T08:37:19.258Z,39.38
2019-03-12T08:38:19.224Z,39.38
2019-03-12T08:39:19.218Z,39.38
2019-03-12T08:40:19.206Z,39.38
2019-03-12T08:41:19.192Z,39.38
2019-03-12T08:42:19.199Z,33.75
2019-03-12T08:43:19.174Z,39.38
2019-03-12T08:44:19.174Z,45.00
2019-03-12T08:45:19.159Z,45.00
2019-03-12T08:46:22.361Z,45.00
2019-03-12T08:47:19.165Z,33.75
2019-03-12T08:48:19.119Z,33.75
2019-03-12T08:49:19.111Z,39.38
2019-03-12T08:50:19.101Z,45.00
2019-03-12T08:51:19.092Z,56.25
2019-03-12T08:52:19.102Z,67.50
2019-03-12T08:53:19.067Z,73.12
2019-03-12T08:54:21.345Z,73.12
2019-03-12T08:55:19.044Z,67.50
2019-03-12T08:56:19.061Z,56.25
2019-03-12T08:57:19.025Z,50.62
2019-03-12T08:58:19.067Z,45.00
2019-03-12T08:59:19.005Z,50.62
2019-03-12T09:00:18.992Z,56.25
2019-03-12T09:01:19.057Z,56.25
2019-03-12T09:02:18.969Z,61.88
2019-03-12T09:03:18.977Z,61.88
2019-03-12T09:04:18.952Z,50.62
2019-03-12T09:05:18.938Z,61.88
2019-03-12T09:06:18.944Z,61.88
2019-03-12T09:07:18.917Z,56.25
2019-03-12T09:08:18.934Z,67.50
2019-03-12T09:09:18.899Z,61.88
2019-03-12T09:10:18.892Z,67.50
2019-03-12T09:11:18.880Z,73.12
2019-03-12T09:12:18.867Z,73.12
2019-03-12T09:13:18.875Z,67.50
2019-03-12T09:14:18.846Z,61.88
2019-03-12T09:15:18.834Z,56.25
2019-03-12T09:16:18.825Z,56.25
2019-03-12T09:17:18.813Z,56.25
2019-03-12T09:18:18.819Z,50.62
2019-03-12T09:19:18.795Z,45.00
2019-03-12T09:20:18.823Z,39.38
2019-03-12T09:21:18.776Z,39.38
2019-03-12T09:22:18.758Z,39.38
2019-03-12T09:23:18.765Z,33.75
2019-03-12T09:24:18.741Z,39.38
2019-03-12T09:25:18.727Z,56.25
2019-03-12T09:26:18.727Z,73.12
2019-03-12T09:27:18.708Z,56.25
2019-03-12T09:28:18.709Z,50.62
2019-03-12T09:29:18.685Z,61.88
2019-03-12T09:30:18.684Z,67.50
2019-03-12T09:31:18.674Z,61.88
2019-03-12T09:32:18.658Z,56.25
2019-03-12T09:33:18.664Z,50.62
2019-03-12T09:34:18.634Z,56.25
2019-03-12T09:35:18.637Z,61.88
2019-03-12T09:36:18.614Z,56.25
2019-03-12T09:37:18.603Z,50.62
2019-03-12T09:38:18.615Z,45.00
2019-03-12T09:39:18.585Z,45.00
2019-03-12T09:40:18.578Z,45.00
2019-03-12T09:41:18.568Z,45.00
2019-03-12T09:42:18.568Z,45.00
2019-03-12T09:43:18.541Z,45.00
2019-03-12T09:44:18.547Z,39.38
2019-03-12T09:45:18.520Z,39.38
2019-03-12T09:46:18.514Z,39.38
2019-03-12T09:47:18.500Z,39.38
2019-03-12T09:48:18.488Z,45.00
2019-03-12T09:49:18.505Z,50.62
2019-03-12T09:50:18.466Z,56.25
2019-03-12T09:51:18.455Z,67.50
2019-03-12T09:52:18.481Z,61.88
2019-03-12T09:53:18.437Z,61.88
2019-03-12T09:54:18.446Z,56.25
2019-03-12T09:55:18.410Z,56.25
2019-03-12T09:56:18.403Z,61.88
2019-03-12T09:57:18.391Z,56.25
2019-03-12T09:58:18.382Z,50.62
2019-03-12T09:59:18.393Z,45.00
2019-03-12T10:00:18.363Z,50.62
2019-03-12T10:01:18.352Z,50.62
2019-03-12T10:02:18.341Z,50.62
2019-03-12T10:03:18.328Z,39.38
2019-03-12T10:04:18.461Z,39.38
2019-03-12T10:05:18.317Z,45.00
2019-03-12T10:06:18.297Z,56.25
2019-03-12T10:07:18.288Z,50.62
2019-03-12T10:08:18.282Z,39.38
2019-03-12T10:09:18.275Z,39.38
2019-03-12T10:10:18.250Z,45.00
2019-03-12T10:11:18.246Z,50.62
2019-03-12T10:12:18.239Z,50.62
2019-03-12T10:13:18.231Z,50.62
2019-03-12T10:14:18.227Z,45.00
2019-03-12T10:15:18.209Z,33.75
2019-03-12T10:16:18.195Z,33.75
2019-03-12T10:17:18.182Z,39.38
2019-03-12T10:18:18.170Z,45.00
2019-03-12T10:19:18.174Z,50.62
2019-03-12T10:20:18.150Z,56.25
2019-03-12T10:21:19.340Z,61.88
2019-03-12T10:22:18.154Z,50.62
2019-03-12T10:23:18.121Z,45.00
2019-03-12T10:24:18.141Z,33.75
2019-03-12T10:25:18.101Z,45.00
2019-03-12T10:26:18.088Z,56.25
2019-03-12T10:27:18.074Z,61.88
2019-03-12T10:28:18.072Z,61.88
2019-03-12T10:29:18.068Z,56.25
2019-03-12T10:30:18.071Z,45.00
2019-03-12T10:31:18.055Z,50.62
2019-03-12T10:32:18.024Z,50.62
2019-03-12T10:33:18.015Z,56.25
2019-03-12T10:34:28.902Z,61.88
2019-03-12T10:35:19.003Z,67.50
2019-03-12T10:36:18.123Z,56.25
2019-03-12T10:37:17.972Z,56.25
2019-03-12T10:38:17.965Z,56.25
2019-03-12T10:39:17.947Z,56.25
2019-03-12T10:40:17.958Z,56.25
2019-03-12T10:41:17.930Z,56.25
2019-03-12T10:42:17.915Z,56.25
2019-03-12T10:43:18.852Z,45.00
2019-03-12T10:44:17.894Z,39.38
2019-03-12T10:45:17.901Z,39.38
2019-03-12T10:46:17.876Z,39.38
2019-03-12T10:47:17.862Z,39.38
2019-03-12T10:48:17.857Z,33.75
2019-03-12T10:49:17.949Z,33.75
2019-03-12T10:50:17.848Z,33.75
2019-03-12T10:51:17.822Z,39.38
2019-03-12T10:52:17.816Z,39.38
2019-03-12T10:53:17.810Z,33.75
2019-03-12T10:54:17.788Z,28.12
2019-03-12T10:55:17.806Z,28.12
2019-03-12T10:56:17.768Z,28.12
2019-03-12T10:57:17.772Z,28.12
2019-03-12T10:58:17.748Z,28.12
2019-03-12T10:59:17.750Z,33.75
2019-03-12T11:00:17.743Z,33.75
2019-03-12T11:01:17.798Z,33.75
2019-03-12T11:02:17.702Z,33.75
2019-03-12T11:03:17.697Z,39.38
2019-03-12T11:04:17.680Z,33.75
2019-03-12T11:05:17.769Z,33.75
2019-03-12T11:06:17.670Z,33.75
2019-03-12T11:07:17.656Z,33.75
2019-03-12T11:08:17.648Z,33.75
2019-03-12T11:09:17.631Z,33.75
2019-03-12T11:10:17.660Z,28.12
2019-03-12T11:11:17.610Z,28.12
2019-03-12T11:12:17.623Z,39.38
2019-03-12T11:13:17.603Z,56.25
2019-03-12T11:14:17.577Z,50.62
2019-03-12T11:15:17.569Z,50.62
2019-03-12T11:16:17.579Z,39.38
2019-03-12T11:17:17.549Z,39.38
2019-03-12T11:18:17.573Z,45.00
2019-03-12T11:19:17.527Z,56.25
2019-03-12T11:20:17.516Z,61.88
2019-03-12T11:21:17.527Z,61.88
2019-03-12T11:22:17.495Z,56.25
2019-03-12T11:23:17.500Z,45.00
2019-03-12T11:24:17.477Z,45.00
2019-03-12T11:25:27.200Z,45.00
2019-03-12T11:26:18.463Z,45.00
2019-03-12T11:27:17.441Z,45.00
2019-03-12T11:28:17.432Z,45.00
2019-03-12T11:29:17.420Z,50.62
2019-03-12T11:30:17.411Z,45.00
2019-03-12T11:31:17.415Z,39.38
2019-03-12T11:32:17.389Z,39.38
2019-03-12T11:33:17.381Z,39.38
2019-03-12T11:34:17.374Z,39.38
2019-03-12T11:35:17.354Z,39.38
2019-03-12T11:36:17.376Z,39.38
2019-03-12T11:37:17.345Z,39.38
2019-03-12T11:38:17.325Z,45.00
2019-03-12T11:39:17.318Z,50.62
2019-03-12T11:40:17.380Z,50.62
2019-03-12T11:41:17.304Z,50.62
2019-03-12T11:42:17.291Z,50.62
2019-03-12T11:43:17.283Z,45.00
2019-03-12T11:44:17.265Z,45.00
2019-03-12T11:45:19.432Z,45.00
2019-03-12T11:46:17.271Z,39.38
2019-03-12T11:47:17.241Z,39.38
2019-03-12T11:48:17.250Z,39.38
2019-03-12T11:49:17.221Z,39.38
2019-03-12T11:50:17.209Z,45.00
2019-03-12T11:51:17.235Z,45.00
2019-03-12T11:52:17.192Z,45.00
2019-03-12T11:53:17.196Z,45.00
2019-03-12T11:54:17.165Z,39.38
2019-03-12T11:55:17.390Z,39.38
2019-03-12T11:56:17.154Z,39.38
2019-03-12T11:57:17.132Z,39.38
2019-03-12T11:58:17.409Z,39.38
2019-03-12T11:59:17.105Z,39.38
2019-03-12T12:00:19.434Z,39.38
2019-03-12T12:01:17.114Z,33.75
2019-03-12T12:02:17.070Z,33.75
2019-03-12T12:03:17.062Z,39.38
2019-03-12T12:04:17.053Z,33.75
2019-03-12T12:05:17.056Z,39.38
2019-03-12T12:06:17.031Z,39.38
2019-03-12T12:07:17.043Z,33.75
2019-03-12T12:08:17.090Z,33.75
2019-03-12T12:09:17.019Z,33.75
2019-03-12T12:10:16.985Z,33.75
2019-03-12T12:11:16.977Z,39.38
2019-03-12T12:12:16.997Z,39.38
2019-03-12T12:13:16.955Z,39.38
2019-03-12T12:14:16.953Z,39.38
2019-03-12T12:15:16.936Z,45.00
2019-03-12T12:16:16.927Z,50.62
2019-03-12T12:17:16.930Z,45.00
2019-03-12T12:18:16.905Z,50.62
2019-03-12T12:19:16.894Z,50.62
2019-03-12T12:20:28.926Z,45.00
2019-03-12T12:21:17.871Z,39.38
2019-03-12T12:22:16.876Z,39.38
2019-03-12T12:23:16.852Z,45.00
2019-03-12T12:24:16.842Z,45.00
2019-03-12T12:25:16.826Z,45.00
2019-03-12T12:26:16.823Z,45.00
2019-03-12T12:27:16.826Z,39.38
2019-03-12T12:28:16.800Z,33.75
2019-03-12T12:29:16.790Z,33.75
2019-03-12T12:30:16.773Z,39.38
2019-03-12T12:31:16.768Z,39.38
2019-03-12T12:32:16.779Z,39.38
2019-03-12T12:33:16.749Z,33.75
2019-03-12T12:34:16.737Z,45.00
2019-03-12T12:35:16.728Z,45.00
2019-03-12T12:36:16.710Z,45.00
2019-03-12T12:37:16.712Z,50.62
2019-03-12T12:38:16.693Z,45.00
2019-03-12T12:39:16.694Z,45.00
2019-03-12T12:40:16.674Z,39.38
2019-03-12T12:41:16.661Z,39.38
2019-03-12T12:42:16.673Z,39.38
2019-03-12T12:43:16.640Z,45.00
2019-03-12T12:44:16.630Z,45.00
2019-03-12T12:45:16.622Z,50.62
2019-03-12T12:46:16.606Z,45.00
2019-03-12T12:47:16.627Z,45.00
2019-03-12T12:48:16.582Z,45.00
2019-03-12T12:49:16.576Z,45.00
2019-03-12T12:50:16.571Z,50.62
2019-03-12T12:51:16.557Z,45.00
2019-03-12T12:52:16.559Z,50.62
2019-03-12T12:53:16.535Z,56.25
2019-03-12T12:54:16.528Z,50.62
2019-03-12T12:55:16.511Z,50.62
2019-03-12T12:56:16.501Z,50.62
2019-03-12T12:57:16.528Z,50.62
2019-03-12T12:58:16.481Z,50.62
2019-03-12T12:59:16.482Z,56.25
2019-03-12T13:00:16.459Z,61.88
2019-03-12T13:01:16.449Z,61.88
2019-03-12T13:02:16.449Z,61.88
2019-03-12T13:03:16.442Z,67.50
2019-03-12T13:04:16.426Z,67.50
2019-03-12T13:05:16.412Z,67.50